createdAt,value
2023-04-28T00:00:35.736Z,1009.43
2023-04-28T00:01:35.756Z,1009.44
2023-04-28T00:02:35.847Z,1009.40
2023-04-28T00:03:36.000Z,1009.41
2023-04-28T00:04:36.096Z,1009.39
2023-04-28T00:05:35.879Z,1009.42
2023-04-28T00:06:35.864Z,1009.42
2023-04-28T00:07:35.899Z,1009.35
2023-04-28T00:08:35.907Z,1009.35
2023-04-28T00:09:35.928Z,1009.36
2023-04-28T00:10:35.957Z,1009.30
2023-04-28T00:11:35.974Z,1009.30
2023-04-28T00:12:35.998Z,1009.26
2023-04-28T00:13:36.017Z,1009.30
2023-04-28T00:14:36.037Z,1009.26
2023-04-28T00:15:36.074Z,1009.28
2023-04-28T00:16:36.120Z,1009.28
2023-04-28T00:17:36.329Z,1009.26
2023-04-28T00:18:36.127Z,1009.25
2023-04-28T00:19:36.155Z,1009.27
2023-04-28T00:20:36.166Z,1009.25
2023-04-28T00:21:36.189Z,1009.18
2023-04-28T00:22:36.230Z,1009.18
2023-04-28T00:23:36.233Z,1009.22
2023-04-28T00:24:36.253Z,1009.19
2023-04-28T00:25:36.273Z,1009.19
2023-04-28T00:26:36.295Z,1009.12
2023-04-28T00:27:36.314Z,1009.12
2023-04-28T00:28:36.340Z,1009.09
2023-04-28T00:29:36.367Z,1009.08
2023-04-28T00:30:36.384Z,1009.07
2023-04-28T00:31:36.485Z,1009.05
2023-04-28T00:32:36.473Z,1009.04
2023-04-28T00:33:36.445Z,1009.05
2023-04-28T00:34:36.467Z,1009.04
2023-04-28T00:35:36.497Z,1009.01
2023-04-28T00:36:36.510Z,1008.97
2023-04-28T00:37:36.531Z,1008.95
2023-04-28T00:38:36.550Z,1008.94
2023-04-28T00:39:36.571Z,1008.96
2023-04-28T00:40:36.592Z,1008.95
2023-04-28T00:41:36.614Z,1008.91
2023-04-28T00:42:36.638Z,1008.90
2023-04-28T00:43:36.656Z,1008.89
2023-04-28T00:44:36.678Z,1008.78
2023-04-28T00:45:36.727Z,1008.82
2023-04-28T00:46:36.738Z,1008.85
2023-04-28T00:47:36.769Z,1008.81
2023-04-28T00:48:36.767Z,1008.86
2023-04-28T00:49:36.844Z,1008.86
2023-04-28T00:50:36.813Z,1008.82
2023-04-28T00:51:36.830Z,1008.76
2023-04-28T00:52:36.847Z,1008.79
2023-04-28T00:53:36.866Z,1008.79
2023-04-28T00:54:36.902Z,1008.77
2023-04-28T00:55:36.913Z,1008.76
2023-04-28T00:56:36.937Z,1008.83
2023-04-28T00:57:36.959Z,1008.83
2023-04-28T00:58:36.973Z,1008.77
2023-04-28T00:59:36.997Z,1008.77
2023-04-28T01:00:37.016Z,1008.69
2023-04-28T01:01:37.100Z,1008.72
2023-04-28T01:02:37.233Z,1008.69
2023-04-28T01:03:37.205Z,1008.63
2023-04-28T01:04:37.316Z,1008.65
2023-04-28T01:05:37.124Z,1008.62
2023-04-28T01:06:37.155Z,1008.63
2023-04-28T01:07:37.177Z,1008.64
2023-04-28T01:08:37.195Z,1008.60
2023-04-28T01:09:37.210Z,1008.63
2023-04-28T01:10:37.241Z,1008.59
2023-04-28T01:11:37.252Z,1008.59
2023-04-28T01:12:37.273Z,1008.57
2023-04-28T01:13:37.301Z,1008.58
2023-04-28T01:14:37.321Z,1008.60
2023-04-28T01:15:37.338Z,1008.56
2023-04-28T01:16:37.408Z,1008.55
2023-04-28T01:17:37.447Z,1008.55
2023-04-28T01:18:37.406Z,1008.55
2023-04-28T01:19:37.431Z,1008.54
2023-04-28T01:20:37.448Z,1008.56
2023-04-28T01:21:37.468Z,1008.51
2023-04-28T01:22:37.485Z,1008.52
2023-04-28T01:23:37.506Z,1008.49
2023-04-28T01:24:37.530Z,1008.44
2023-04-28T01:25:37.548Z,1008.40
2023-04-28T01:26:37.574Z,1008.41
2023-04-28T01:27:37.594Z,1008.40
2023-04-28T01:28:37.619Z,1008.38
2023-04-28T01:29:37.656Z,1008.39
2023-04-28T01:30:37.662Z,1008.35
2023-04-28T01:31:37.704Z,1008.35
2023-04-28T01:32:37.727Z,1008.39
2023-04-28T01:33:37.724Z,1008.41
2023-04-28T01:34:37.749Z,1008.43
2023-04-28T01:35:37.776Z,1008.43
2023-04-28T01:36:38.018Z,1008.44
2023-04-28T01:37:37.811Z,1008.46
2023-04-28T01:38:37.830Z,1008.42
2023-04-28T01:39:37.852Z,1008.35
2023-04-28T01:40:37.870Z,1008.29
2023-04-28T01:41:37.891Z,1008.30
2023-04-28T01:42:37.917Z,1008.27
2023-04-28T01:43:37.944Z,1008.20
2023-04-28T01:44:37.957Z,1008.20
2023-04-28T01:45:37.986Z,1008.20
2023-04-28T01:46:38.137Z,1008.20
2023-04-28T01:47:38.036Z,1008.19
2023-04-28T01:48:38.048Z,1008.17
2023-04-28T01:49:38.074Z,1008.17
2023-04-28T01:50:38.086Z,1008.17
2023-04-28T01:51:38.109Z,1008.12
2023-04-28T01:52:38.127Z,1008.14
2023-04-28T01:53:38.147Z,1008.17
2023-04-28T01:54:38.198Z,1008.13
2023-04-28T01:55:38.191Z,1008.11
2023-04-28T01:56:38.223Z,1008.11
2023-04-28T01:57:38.239Z,1008.09
2023-04-28T01:58:38.259Z,1008.10
2023-04-28T01:59:38.275Z,1008.07
2023-04-28T02:00:38.304Z,1008.03
2023-04-28T02:01:38.331Z,1008.03
2023-04-28T02:02:38.446Z,1008.05
2023-04-28T02:03:38.558Z,1007.98
2023-04-28T02:04:38.434Z,1008.02
2023-04-28T02:05:38.416Z,1008.04
2023-04-28T02:06:38.426Z,1007.97
2023-04-28T02:07:38.458Z,1008.00
2023-04-28T02:08:38.480Z,1007.99
2023-04-28T02:09:38.494Z,1007.96
2023-04-28T02:10:38.519Z,1007.95
2023-04-28T02:11:38.532Z,1007.96
2023-04-28T02:12:38.554Z,1007.98
2023-04-28T02:13:38.583Z,1007.94
2023-04-28T02:14:38.600Z,1007.91
2023-04-28T02:15:38.688Z,1007.92
2023-04-28T02:16:38.641Z,1007.88
2023-04-28T02:17:38.681Z,1007.91
2023-04-28T02:18:38.690Z,1007.87
2023-04-28T02:19:38.702Z,1007.89
2023-04-28T02:20:38.728Z,1007.87
2023-04-28T02:21:38.748Z,1007.90
2023-04-28T02:22:38.780Z,1007.85
2023-04-28T02:23:38.790Z,1007.86
2023-04-28T02:24:38.823Z,1007.84
2023-04-28T02:25:38.835Z,1007.84
2023-04-28T02:26:38.856Z,1007.82
2023-04-28T02:27:38.879Z,1007.82
2023-04-28T02:28:38.898Z,1007.82
2023-04-28T02:29:38.921Z,1007.80
2023-04-28T02:30:38.941Z,1007.79
2023-04-28T02:31:39.018Z,1007.79
2023-04-28T02:32:39.016Z,1007.81
2023-04-28T02:33:39.093Z,1007.81
2023-04-28T02:34:39.056Z,1007.81
2023-04-28T02:35:39.049Z,1007.79
2023-04-28T02:36:39.070Z,1007.80
2023-04-28T02:37:39.092Z,1007.74
2023-04-28T02:38:39.113Z,1007.75
2023-04-28T02:39:39.133Z,1007.73
2023-04-28T02:40:39.155Z,1007.75
2023-04-28T02:41:39.180Z,1007.70
2023-04-28T02:42:39.211Z,1007.72
2023-04-28T02:43:39.236Z,1007.69
2023-04-28T02:44:39.242Z,1007.68
2023-04-28T02:45:39.263Z,1007.64
2023-04-28T02:46:39.313Z,1007.61
2023-04-28T02:47:39.319Z,1007.58
2023-04-28T02:48:39.335Z,1007.58
2023-04-28T02:49:39.368Z,1007.60
2023-04-28T02:50:39.386Z,1007.57
2023-04-28T02:51:39.398Z,1007.60
2023-04-28T02:52:39.424Z,1007.58
2023-04-28T02:53:39.437Z,1007.55
2023-04-28T02:54:39.458Z,1007.53
2023-04-28T02:55:39.483Z,1007.56
2023-04-28T02:56:39.503Z,1007.56
2023-04-28T02:57:39.582Z,1007.59
2023-04-28T02:58:39.552Z,1007.59
2023-04-28T02:59:39.565Z,1007.57
2023-04-28T03:00:39.585Z,1007.52
2023-04-28T03:01:39.626Z,1007.53
2023-04-28T03:02:39.698Z,1007.51
2023-04-28T03:03:39.845Z,1007.51
2023-04-28T03:04:39.718Z,1007.49
2023-04-28T03:05:39.695Z,1007.50
2023-04-28T03:06:39.719Z,1007.49
2023-04-28T03:07:39.738Z,1007.49
2023-04-28T03:08:39.766Z,1007.49
2023-04-28T03:09:42.156Z,1007.45
2023-04-28T03:10:39.804Z,1007.43
2023-04-28T03:11:39.832Z,1007.45
2023-04-28T03:12:39.856Z,1007.47
2023-04-28T03:13:39.878Z,1007.41
2023-04-28T03:14:39.892Z,1007.47
2023-04-28T03:15:39.921Z,1007.46
2023-04-28T03:16:40.001Z,1007.49
2023-04-28T03:17:39.993Z,1007.47
2023-04-28T03:18:39.987Z,1007.44
2023-04-28T03:19:39.999Z,1007.46
2023-04-28T03:20:40.017Z,1007.50
2023-04-28T03:21:40.042Z,1007.42
2023-04-28T03:22:40.069Z,1007.45
2023-04-28T03:23:40.086Z,1007.45
2023-04-28T03:24:40.115Z,1007.40
2023-04-28T03:25:40.128Z,1007.38
2023-04-28T03:26:40.153Z,1007.38
2023-04-28T03:27:40.172Z,1007.36
2023-04-28T03:28:40.194Z,1007.38
2023-04-28T03:29:40.410Z,1007.36
2023-04-28T03:30:40.247Z,1007.38
2023-04-28T03:31:40.283Z,1007.37
2023-04-28T03:32:40.319Z,1007.36
2023-04-28T03:33:40.299Z,1007.34
2023-04-28T03:34:40.323Z,1007.32
2023-04-28T03:35:40.348Z,1007.30
2023-04-28T03:36:40.367Z,1007.31
2023-04-28T03:37:40.387Z,1007.32
2023-04-28T03:38:40.418Z,1007.29
2023-04-28T03:39:40.431Z,1007.31
2023-04-28T03:40:40.451Z,1007.29
2023-04-28T03:41:40.472Z,1007.26
2023-04-28T03:42:40.505Z,1007.27
2023-04-28T03:43:40.530Z,1007.27
2023-04-28T03:44:40.539Z,1007.24
2023-04-28T03:45:40.607Z,1007.24
2023-04-28T03:46:40.578Z,1007.24
2023-04-28T03:47:40.615Z,1007.23
2023-04-28T03:48:40.630Z,1007.22
2023-04-28T03:49:40.650Z,1007.20
2023-04-28T03:50:40.668Z,1007.16
2023-04-28T03:51:40.688Z,1007.16
2023-04-28T03:52:40.721Z,1007.16
2023-04-28T03:53:40.734Z,1007.13
2023-04-28T03:54:40.757Z,1007.12
2023-04-28T03:55:40.777Z,1007.08
2023-04-28T03:56:40.809Z,1007.10
2023-04-28T03:57:40.821Z,1007.09
2023-04-28T03:58:40.844Z,1007.05
2023-04-28T03:59:40.914Z,1007.07
2023-04-28T04:00:40.890Z,1007.09
2023-04-28T04:01:40.905Z,1007.08
2023-04-28T04:02:41.050Z,1007.06
2023-04-28T04:03:41.099Z,1007.09
2023-04-28T04:04:41.091Z,1007.09
2023-04-28T04:05:41.015Z,1007.08
2023-04-28T04:06:41.017Z,1007.03
2023-04-28T04:07:41.041Z,1007.08
2023-04-28T04:08:41.070Z,1007.05
2023-04-28T04:09:41.082Z,1007.05
2023-04-28T04:10:41.109Z,1007.10
2023-04-28T04:11:41.130Z,1007.11
2023-04-28T04:12:41.155Z,1007.10
2023-04-28T04:13:41.171Z,1007.19
2023-04-28T04:14:41.193Z,1007.13
2023-04-28T04:15:41.236Z,1007.17
2023-04-28T04:16:41.264Z,1007.18
2023-04-28T04:17:41.309Z,1007.17
2023-04-28T04:18:41.295Z,1007.18
2023-04-28T04:19:41.303Z,1007.20
2023-04-28T04:20:41.324Z,1007.19
2023-04-28T04:21:41.345Z,1007.16
2023-04-28T04:22:41.366Z,1007.13
2023-04-28T04:23:41.391Z,1007.09
2023-04-28T04:24:41.416Z,1007.10
2023-04-28T04:25:41.441Z,1007.08
2023-04-28T04:26:41.455Z,1007.07
2023-04-28T04:27:41.476Z,1007.07
2023-04-28T04:28:41.515Z,1007.02
2023-04-28T04:29:41.519Z,1007.02
2023-04-28T04:30:41.542Z,1007.03
2023-04-28T04:31:41.668Z,1007.01
2023-04-28T04:32:41.618Z,1007.03
2023-04-28T04:33:41.611Z,1007.02
2023-04-28T04:34:41.632Z,1007.03
2023-04-28T04:35:41.651Z,1007.01
2023-04-28T04:36:41.677Z,1007.00
2023-04-28T04:37:41.698Z,1006.98
2023-04-28T04:38:41.718Z,1006.97
2023-04-28T04:39:41.744Z,1006.97
2023-04-28T04:40:41.766Z,1006.95
2023-04-28T04:41:41.786Z,1006.97
2023-04-28T04:42:41.804Z,1006.94
2023-04-28T04:43:41.827Z,1006.94
2023-04-28T04:44:41.849Z,1006.86
2023-04-28T04:45:41.873Z,1006.87
2023-04-28T04:46:41.941Z,1006.83
2023-04-28T04:47:41.992Z,1006.84
2023-04-28T04:48:41.957Z,1006.86
2023-04-28T04:49:41.959Z,1006.83
2023-04-28T04:50:41.982Z,1006.87
2023-04-28T04:51:42.008Z,1006.85
2023-04-28T04:52:42.024Z,1006.84
2023-04-28T04:53:42.047Z,1006.86
2023-04-28T04:54:42.073Z,1006.85
2023-04-28T04:55:42.089Z,1006.81
2023-04-28T04:56:42.116Z,1006.84
2023-04-28T04:57:42.141Z,1006.83
2023-04-28T04:58:42.158Z,1006.83
2023-04-28T04:59:42.178Z,1006.82
2023-04-28T05:00:42.208Z,1006.81
2023-04-28T05:01:42.286Z,1006.77
2023-04-28T05:02:42.382Z,1006.79
2023-04-28T05:03:42.393Z,1006.76
2023-04-28T05:04:42.351Z,1006.70
2023-04-28T05:05:43.764Z,1006.69
2023-04-28T05:06:42.337Z,1006.70
2023-04-28T05:07:42.376Z,1006.67
2023-04-28T05:08:42.383Z,1006.73
2023-04-28T05:09:42.413Z,1006.66
2023-04-28T05:10:42.432Z,1006.66
2023-04-28T05:11:42.452Z,1006.71
2023-04-28T05:12:42.470Z,1006.73
2023-04-28T05:13:42.512Z,1006.74
2023-04-28T05:14:42.516Z,1006.80
2023-04-28T05:15:42.537Z,1006.82
2023-04-28T05:16:42.624Z,1006.82
2023-04-28T05:17:42.616Z,1006.83
2023-04-28T05:18:42.605Z,1006.86
2023-04-28T05:19:42.649Z,1006.84
2023-04-28T05:20:42.648Z,1006.87
2023-04-28T05:21:42.683Z,1006.84
2023-04-28T05:22:42.698Z,1006.83
2023-04-28T05:23:42.714Z,1006.85
2023-04-28T05:24:42.736Z,1006.82
2023-04-28T05:25:42.761Z,1006.84
2023-04-28T05:26:42.782Z,1006.85
2023-04-28T05:27:42.800Z,1006.78
2023-04-28T05:28:42.826Z,1006.73
2023-04-28T05:29:42.856Z,1006.72
2023-04-28T05:30:42.869Z,1006.67
2023-04-28T05:31:42.989Z,1006.65
2023-04-28T05:32:42.967Z,1006.63
2023-04-28T05:33:42.938Z,1006.65
2023-04-28T05:34:42.964Z,1006.59
2023-04-28T05:35:42.993Z,1006.66
2023-04-28T05:36:43.005Z,1006.65
2023-04-28T05:37:43.061Z,1006.64
2023-04-28T05:38:43.047Z,1006.67
2023-04-28T05:39:43.073Z,1006.63
2023-04-28T05:40:43.097Z,1006.62
2023-04-28T05:41:43.117Z,1006.64
2023-04-28T05:42:43.142Z,1006.58
2023-04-28T05:43:43.158Z,1006.60
2023-04-28T05:44:43.321Z,1006.57
2023-04-28T05:45:43.233Z,1006.55
2023-04-28T05:46:43.278Z,1006.56
2023-04-28T05:47:43.285Z,1006.54
2023-04-28T05:48:43.286Z,1006.53
2023-04-28T05:49:43.297Z,1006.51
2023-04-28T05:50:43.335Z,1006.52
2023-04-28T05:51:43.335Z,1006.49
2023-04-28T05:52:43.371Z,1006.51
2023-04-28T05:53:43.382Z,1006.49
2023-04-28T05:54:43.403Z,1006.50
2023-04-28T05:55:43.425Z,1006.45
2023-04-28T05:56:43.449Z,1006.48
2023-04-28T05:57:52.525Z,1006.44
2023-04-28T05:58:43.492Z,1006.52
2023-04-28T05:59:43.516Z,1006.48
2023-04-28T06:00:43.550Z,1006.52
2023-04-28T06:01:43.560Z,1006.56
2023-04-28T06:02:43.697Z,1006.59
2023-04-28T06:03:43.921Z,1006.63
2023-04-28T06:04:43.744Z,1006.60
2023-04-28T06:05:43.998Z,1006.60
2023-04-28T06:06:43.687Z,1006.61
2023-04-28T06:07:43.698Z,1006.60
2023-04-28T06:08:43.727Z,1006.63
2023-04-28T06:09:43.744Z,1006.61
2023-04-28T06:10:43.767Z,1006.59
2023-04-28T06:11:43.788Z,1006.59
2023-04-28T06:12:43.811Z,1006.50
2023-04-28T06:13:43.835Z,1006.54
2023-04-28T06:14:43.850Z,1006.53
2023-04-28T06:15:43.900Z,1006.50
2023-04-28T06:16:43.896Z,1006.50
2023-04-28T06:17:43.942Z,1006.50
2023-04-28T06:18:43.948Z,1006.46
2023-04-28T06:19:43.965Z,1006.48
2023-04-28T06:20:43.988Z,1006.45
2023-04-28T06:21:44.012Z,1006.46
2023-04-28T06:22:44.037Z,1006.45
2023-04-28T06:23:44.083Z,1006.43
2023-04-28T06:24:44.076Z,1006.40
2023-04-28T06:25:44.116Z,1006.41
2023-04-28T06:26:44.158Z,1006.43
2023-04-28T06:27:44.163Z,1006.41
2023-04-28T06:28:44.173Z,1006.38
2023-04-28T06:29:44.211Z,1006.36
2023-04-28T06:30:44.227Z,1006.38
2023-04-28T06:31:44.262Z,1006.40
2023-04-28T06:32:44.270Z,1006.33
2023-04-28T06:33:44.286Z,1006.36
2023-04-28T06:34:44.310Z,1006.33
2023-04-28T06:35:44.324Z,1006.33
2023-04-28T06:36:44.346Z,1006.31
2023-04-28T06:37:44.374Z,1006.34
2023-04-28T06:38:44.392Z,1006.32
2023-04-28T06:39:44.417Z,1006.31
2023-04-28T06:40:44.441Z,1006.32
2023-04-28T06:41:44.463Z,1006.32
2023-04-28T06:42:44.487Z,1006.34
2023-04-28T06:43:44.507Z,1006.33
2023-04-28T06:44:44.530Z,1006.36
2023-04-28T06:45:44.556Z,1006.37
2023-04-28T06:46:44.618Z,1006.34
2023-04-28T06:47:44.628Z,1006.35
2023-04-28T06:48:44.631Z,1006.33
2023-04-28T06:49:44.643Z,1006.30
2023-04-28T06:50:44.665Z,1006.26
2023-04-28T06:51:44.690Z,1006.25
2023-04-28T06:52:44.709Z,1006.24
2023-04-28T06:53:44.739Z,1006.25
2023-04-28T06:54:44.751Z,1006.23
2023-04-28T06:55:44.794Z,1006.24
2023-04-28T06:56:44.802Z,1006.22
2023-04-28T06:57:44.900Z,1006.21
2023-04-28T06:58:45.089Z,1006.23
2023-04-28T06:59:44.874Z,1006.23
2023-04-28T07:00:44.962Z,1006.23
2023-04-28T07:01:44.943Z,1006.22
2023-04-28T07:02:45.114Z,1006.25
2023-04-28T07:03:45.050Z,1006.27
2023-04-28T07:04:44.982Z,1006.27
2023-04-28T07:05:45.010Z,1006.29
2023-04-28T07:06:45.037Z,1006.25
2023-04-28T07:07:45.070Z,1006.21
2023-04-28T07:08:45.082Z,1006.27
2023-04-28T07:09:45.109Z,1006.20
2023-04-28T07:10:45.128Z,1006.18
2023-04-28T07:11:45.161Z,1006.22
2023-04-28T07:12:45.187Z,1006.16
2023-04-28T07:13:45.205Z,1006.15
2023-04-28T07:14:45.244Z,1006.12
2023-04-28T07:15:45.243Z,1006.10
2023-04-28T07:16:45.413Z,1006.13
2023-04-28T07:17:45.319Z,1006.13
2023-04-28T07:18:45.309Z,1006.10
2023-04-28T07:19:45.336Z,1006.10
2023-04-28T07:20:45.356Z,1006.06
2023-04-28T07:21:45.391Z,1006.08
2023-04-28T07:22:45.407Z,1006.08
2023-04-28T07:23:45.424Z,1006.02
2023-04-28T07:24:45.451Z,1006.02
2023-04-28T07:25:45.473Z,1006.02
2023-04-28T07:26:45.507Z,1005.99
2023-04-28T07:27:45.526Z,1005.97
2023-04-28T07:28:45.557Z,1005.97
2023-04-28T07:29:45.580Z,1005.91
2023-04-28T07:30:45.592Z,1005.92
2023-04-28T07:31:45.670Z,1005.91
2023-04-28T07:32:45.654Z,1005.91
2023-04-28T07:33:45.674Z,1005.93
2023-04-28T07:34:45.687Z,1005.93
2023-04-28T07:35:45.705Z,1005.95
2023-04-28T07:36:45.726Z,1005.95
2023-04-28T07:37:45.752Z,1005.95
2023-04-28T07:38:45.779Z,1005.95
2023-04-28T07:39:45.812Z,1005.94
2023-04-28T07:40:45.821Z,1005.91
2023-04-28T07:41:45.851Z,1005.89
2023-04-28T07:42:45.874Z,1005.86
2023-04-28T07:43:45.970Z,1005.92
2023-04-28T07:44:45.909Z,1005.88
2023-04-28T07:45:46.173Z,1005.87
2023-04-28T07:46:45.958Z,1005.86
2023-04-28T07:47:46.006Z,1005.87
2023-04-28T07:48:46.015Z,1005.81
2023-04-28T07:49:46.029Z,1005.84
2023-04-28T07:50:46.053Z,1005.77
2023-04-28T07:51:46.082Z,1005.81
2023-04-28T07:52:46.123Z,1005.77
2023-04-28T07:53:46.137Z,1005.73
2023-04-28T07:54:46.161Z,1005.72
2023-04-28T07:55:46.196Z,1005.72
2023-04-28T07:56:46.197Z,1005.69
2023-04-28T07:57:46.223Z,1005.70
2023-04-28T07:58:46.251Z,1005.66
2023-04-28T07:59:46.270Z,1005.69
2023-04-28T08:00:46.298Z,1005.67
2023-04-28T08:01:46.345Z,1005.68
2023-04-28T08:02:46.446Z,1005.69
2023-04-28T08:03:46.556Z,1005.70
2023-04-28T08:04:46.577Z,1005.71
2023-04-28T08:05:46.524Z,1005.70
2023-04-28T08:06:46.441Z,1005.71
2023-04-28T08:07:46.484Z,1005.69
2023-04-28T08:08:46.494Z,1005.71
2023-04-28T08:09:46.523Z,1005.69
2023-04-28T08:10:46.544Z,1005.67
2023-04-28T08:11:46.576Z,1005.70
2023-04-28T08:12:46.596Z,1005.68
2023-04-28T08:13:46.636Z,1005.67
2023-04-28T08:14:46.649Z,1005.70
2023-04-28T08:15:46.714Z,1005.68
2023-04-28T08:16:46.689Z,1005.72
2023-04-28T08:17:46.746Z,1005.72
2023-04-28T08:18:46.811Z,1005.76
2023-04-28T08:19:46.766Z,1005.78
2023-04-28T08:20:46.791Z,1005.75
2023-04-28T08:21:46.825Z,1005.77
2023-04-28T08:22:46.843Z,1005.81
2023-04-28T08:23:46.869Z,1005.82
2023-04-28T08:24:46.894Z,1005.80
2023-04-28T08:25:46.925Z,1005.84
2023-04-28T08:26:46.941Z,1005.86
2023-04-28T08:27:46.969Z,1005.90
2023-04-28T08:28:46.991Z,1005.90
2023-04-28T08:29:47.016Z,1005.88
2023-04-28T08:30:47.046Z,1005.86
2023-04-28T08:31:47.138Z,1005.86
2023-04-28T08:32:47.104Z,1005.86
2023-04-28T08:33:47.113Z,1005.87
2023-04-28T08:34:47.139Z,1005.85
2023-04-28T08:35:47.172Z,1005.86
2023-04-28T08:36:47.189Z,1005.89
2023-04-28T08:37:47.211Z,1005.90
2023-04-28T08:38:47.237Z,1005.91
2023-04-28T08:39:47.260Z,1005.95
2023-04-28T08:40:47.312Z,1005.94
2023-04-28T08:41:47.311Z,1005.94
2023-04-28T08:42:47.337Z,1005.95
2023-04-28T08:43:47.358Z,1005.93
2023-04-28T08:44:47.387Z,1005.89
2023-04-28T08:45:47.410Z,1005.87
2023-04-28T08:46:47.492Z,1005.89
2023-04-28T08:47:47.586Z,1005.86
2023-04-28T08:48:47.536Z,1005.92
2023-04-28T08:49:47.507Z,1005.91
2023-04-28T08:50:47.533Z,1005.91
2023-04-28T08:51:47.568Z,1005.93
2023-04-28T08:52:47.602Z,1005.93
2023-04-28T08:54:11.854Z,1005.95
2023-04-28T08:54:47.626Z,1005.92
2023-04-28T08:55:47.653Z,1005.86
2023-04-28T08:56:47.695Z,1005.87
2023-04-28T08:57:47.705Z,1005.81
2023-04-28T08:58:47.728Z,1005.80
2023-04-28T08:59:47.756Z,1005.68
2023-04-28T09:00:47.769Z,1005.59
2023-04-28T09:01:47.917Z,1005.52
2023-04-28T09:02:47.923Z,1005.45
2023-04-28T09:03:47.965Z,1005.41
2023-04-28T09:04:47.998Z,1005.36
2023-04-28T09:05:47.956Z,1005.36
2023-04-28T09:06:47.937Z,1005.39
2023-04-28T09:07:47.998Z,1005.36
2023-04-28T09:08:47.989Z,1005.35
2023-04-28T09:09:47.993Z,1005.35
2023-04-28T09:10:48.019Z,1005.32
2023-04-28T09:11:48.037Z,1005.38
2023-04-28T09:12:48.095Z,1005.40
2023-04-28T09:13:48.099Z,1005.40
2023-04-28T09:14:48.112Z,1005.37
2023-04-28T09:15:48.138Z,1005.34
2023-04-28T09:16:48.207Z,1005.34
2023-04-28T09:17:48.230Z,1005.38
2023-04-28T09:18:48.216Z,1005.42
2023-04-28T09:19:48.237Z,1005.43
2023-04-28T09:20:48.257Z,1005.50
2023-04-28T09:21:48.349Z,1005.53
2023-04-28T09:22:48.379Z,1005.57
2023-04-28T09:23:48.332Z,1005.63
2023-04-28T09:24:48.355Z,1005.63
2023-04-28T09:25:48.382Z,1005.64
2023-04-28T09:26:48.410Z,1005.66
2023-04-28T09:27:48.432Z,1005.68
2023-04-28T09:28:48.483Z,1005.69
2023-04-28T09:29:48.480Z,1005.70
2023-04-28T09:30:48.512Z,1005.66
2023-04-28T09:31:48.576Z,1005.66
2023-04-28T09:32:48.601Z,1005.69
2023-04-28T09:33:48.583Z,1005.69
2023-04-28T09:34:48.607Z,1005.68
2023-04-28T09:35:48.630Z,1005.68
2023-04-28T09:36:48.668Z,1005.67
2023-04-28T09:37:48.684Z,1005.67
2023-04-28T09:38:48.715Z,1005.63
2023-04-28T09:39:48.742Z,1005.63
2023-04-28T09:40:48.777Z,1005.65
2023-04-28T09:41:48.788Z,1005.58
2023-04-28T09:42:48.848Z,1005.57
2023-04-28T09:43:48.832Z,1005.55
2023-04-28T09:44:48.856Z,1005.54
2023-04-28T09:45:48.893Z,1005.52
2023-04-28T09:46:48.918Z,1005.46
2023-04-28T09:47:48.949Z,1005.49
2023-04-28T09:48:48.982Z,1005.51
2023-04-28T09:49:48.982Z,1005.51
2023-04-28T09:50:49.008Z,1005.49
2023-04-28T09:51:49.064Z,1005.50
2023-04-28T09:52:49.061Z,1005.51
2023-04-28T09:53:49.101Z,1005.54
2023-04-28T09:54:49.108Z,1005.57
2023-04-28T09:55:49.131Z,1005.52
2023-04-28T09:56:49.221Z,1005.47
2023-04-28T09:57:50.198Z,1005.48
2023-04-28T09:58:49.221Z,1005.43
2023-04-28T09:59:49.238Z,1005.42
2023-04-28T10:00:49.262Z,1005.46
2023-04-28T10:01:49.430Z,1005.42
2023-04-28T10:02:49.396Z,1005.40
2023-04-28T10:03:49.435Z,1005.39
2023-04-28T10:04:49.558Z,1005.42
2023-04-28T10:05:49.396Z,1005.39
2023-04-28T10:06:49.421Z,1005.40
2023-04-28T10:07:49.457Z,1005.40
2023-04-28T10:08:49.476Z,1005.39
2023-04-28T10:09:49.507Z,1005.40
2023-04-28T10:10:49.526Z,1005.39
2023-04-28T10:11:49.553Z,1005.37
2023-04-28T10:12:49.580Z,1005.41
2023-04-28T10:13:49.607Z,1005.40
2023-04-28T10:14:49.635Z,1005.38
2023-04-28T10:15:49.796Z,1005.36
2023-04-28T10:16:49.697Z,1005.38
2023-04-28T10:17:49.758Z,1005.33
2023-04-28T10:18:49.743Z,1005.37
2023-04-28T10:19:49.770Z,1005.35
2023-04-28T10:20:49.811Z,1005.41
2023-04-28T10:21:49.834Z,1005.32
2023-04-28T10:22:49.862Z,1005.35
2023-04-28T10:23:49.874Z,1005.35
2023-04-28T10:24:49.903Z,1005.33
2023-04-28T10:25:49.938Z,1005.31
2023-04-28T10:26:49.962Z,1005.31
2023-04-28T10:27:49.984Z,1005.25
2023-04-28T10:28:50.020Z,1005.24
2023-04-28T10:29:50.039Z,1005.25
2023-04-28T10:30:50.075Z,1005.24
2023-04-28T10:31:50.254Z,1005.25
2023-04-28T10:32:50.149Z,1005.22
2023-04-28T10:33:50.145Z,1005.26
2023-04-28T10:34:50.182Z,1005.26
2023-04-28T10:35:50.205Z,1005.25
2023-04-28T10:36:50.234Z,1005.21
2023-04-28T10:37:50.257Z,1005.23
2023-04-28T10:38:50.286Z,1005.26
2023-04-28T10:39:50.347Z,1005.23
2023-04-28T10:40:50.352Z,1005.26
2023-04-28T10:41:50.376Z,1005.26
2023-04-28T10:42:50.397Z,1005.24
2023-04-28T10:43:50.431Z,1005.25
2023-04-28T10:44:50.452Z,1005.18
2023-04-28T10:45:50.588Z,1005.16
2023-04-28T10:46:50.544Z,1005.20
2023-04-28T10:47:50.551Z,1005.18
2023-04-28T10:48:50.568Z,1005.19
2023-04-28T10:49:50.597Z,1005.16
2023-04-28T10:50:50.804Z,1005.14
2023-04-28T10:51:50.646Z,1005.10
2023-04-28T10:52:50.687Z,1005.09
2023-04-28T10:53:50.701Z,1005.11
2023-04-28T10:54:50.733Z,1005.10
2023-04-28T10:55:50.761Z,1005.07
2023-04-28T10:56:50.787Z,1005.07
2023-04-28T10:57:50.829Z,1005.07
2023-04-28T10:58:50.929Z,1005.03
2023-04-28T10:59:50.870Z,1005.08
2023-04-28T11:00:50.929Z,1005.02
2023-04-28T11:01:50.981Z,1005.08
2023-04-28T11:02:51.118Z,1005.09
2023-04-28T11:03:51.165Z,1005.12
2023-04-28T11:04:51.158Z,1005.10
2023-04-28T11:05:51.053Z,1005.07
2023-04-28T11:06:51.075Z,1005.09
2023-04-28T11:07:51.096Z,1005.06
2023-04-28T11:08:51.136Z,1005.03
2023-04-28T11:09:51.162Z,1005.01
2023-04-28T11:10:51.192Z,1004.97
2023-04-28T11:11:51.214Z,1004.93
2023-04-28T11:12:51.249Z,1004.90
2023-04-28T11:13:51.267Z,1004.89
2023-04-28T11:14:51.300Z,1004.84
2023-04-28T11:15:51.338Z,1004.84
2023-04-28T11:16:51.608Z,1004.84
2023-04-28T11:17:51.435Z,1004.87
2023-04-28T11:18:53.615Z,1004.85
2023-04-28T11:19:51.446Z,1004.85
2023-04-28T11:20:51.466Z,1004.86
2023-04-28T11:21:51.495Z,1004.80
2023-04-28T11:22:51.535Z,1004.84
2023-04-28T11:23:51.556Z,1004.77
2023-04-28T11:24:53.983Z,1004.76
2023-04-28T11:25:51.614Z,1004.74
2023-04-28T11:26:51.645Z,1004.77
2023-04-28T11:27:51.675Z,1004.76
2023-04-28T11:28:51.712Z,1004.76
2023-04-28T11:29:51.743Z,1004.76
2023-04-28T11:30:53.739Z,1004.80
2023-04-28T11:31:51.824Z,1004.82
2023-04-28T11:32:51.925Z,1004.79
2023-04-28T11:33:51.856Z,1004.83
2023-04-28T11:34:51.879Z,1004.80
2023-04-28T11:35:51.906Z,1004.78
2023-04-28T11:36:54.142Z,1004.82
2023-04-28T11:37:51.969Z,1004.85
2023-04-28T11:38:51.997Z,1004.80
2023-04-28T11:39:52.025Z,1004.81
2023-04-28T11:40:52.058Z,1004.76
2023-04-28T11:41:52.084Z,1004.79
2023-04-28T11:42:52.113Z,1004.82
2023-04-28T11:43:52.147Z,1004.79
2023-04-28T11:44:52.174Z,1004.73
2023-04-28T11:45:52.233Z,1004.74
2023-04-28T11:46:52.230Z,1004.79
2023-04-28T11:47:52.307Z,1004.70
2023-04-28T11:48:52.298Z,1004.70
2023-04-28T11:49:52.320Z,1004.73
2023-04-28T11:50:52.353Z,1004.66
2023-04-28T11:51:52.380Z,1004.66
2023-04-28T11:52:53.753Z,1004.60
2023-04-28T11:53:52.439Z,1004.59
2023-04-28T11:54:52.472Z,1004.59
2023-04-28T11:55:52.498Z,1004.61
2023-04-28T11:56:52.533Z,1004.55
2023-04-28T11:57:52.558Z,1004.59
2023-04-28T11:58:52.589Z,1004.55
2023-04-28T11:59:52.643Z,1004.57
2023-04-28T12:00:52.649Z,1004.56
2023-04-28T12:01:52.716Z,1004.58
2023-04-28T12:02:52.809Z,1004.56
2023-04-28T12:03:52.851Z,1004.57
2023-04-28T12:04:52.770Z,1004.59
2023-04-28T12:05:52.819Z,1004.56